Time;durP1;ratioP1;P1;durP2;ratioP2;P2;SDS_P1;SDS_P2;PMS_P1;PMS_P2;Temp;Humidity;BMP_temperature;BMP_pressure;BME280_temperature;BME280_humidity;BME280_pressure;Samples;Min_cycle;Max_cycle;Signal;HPM_P1;HPM_P2
2023/05/18 00:00:28;;;;;;;8.70;7.27;;;;;;;15.43;100.00;101216.59;2072742;28;20688;-68
2023/05/18 00:01:29;;;;;;;11.60;7.53;;;;;;;15.43;100.00;101218.63;2072438;28;20827;-69
2023/05/18 00:02:30;;;;;;;9.83;7.73;;;;;;;15.38;100.00;101213.59;2073338;28;20554;-69
2023/05/18 00:03:32;;;;;;;11.07;7.27;;;;;;;15.38;100.00;101217.16;2073391;28;20184;-68
2023/05/18 00:04:33;;;;;;;9.57;7.80;;;;;;;15.43;100.00;101216.59;2072725;28;20212;-69
2023/05/18 00:05:34;;;;;;;12.17;7.47;;;;;;;15.45;100.00;101213.34;2073187;28;20448;-69
2023/05/18 00:06:35;;;;;;;11.40;7.97;;;;;;;15.47;100.00;101220.03;2072548;28;21143;-68
2023/05/18 00:07:36;;;;;;;13.57;7.10;;;;;;;15.50;100.00;101212.78;2071626;28;20240;-69
2023/05/18 00:08:37;;;;;;;9.53;7.87;;;;;;;15.54;100.00;101219.81;2070388;28;20181;-69
2023/05/18 00:09:37;;;;;;;8.77;7.30;;;;;;;15.46;100.00;101223.28;2078105;28;20462;-69
2023/05/18 00:10:38;;;;;;;8.83;7.47;;;;;;;15.47;100.00;101217.25;2075582;28;20195;-68
2023/05/18 00:11:39;;;;;;;9.57;7.60;;;;;;;15.46;100.00;101214.91;2073908;28;20235;-68
2023/05/18 00:12:40;;;;;;;12.73;7.87;;;;;;;15.43;100.00;101215.81;2072571;28;20189;-69
2023/05/18 00:13:40;;;;;;;11.83;7.13;;;;;;;15.45;100.00;101216.13;2069585;28;20786;-68
2023/05/18 00:14:41;;;;;;;12.60;7.77;;;;;;;15.32;100.00;101207.75;2073387;28;20226;-68
2023/05/18 00:15:41;;;;;;;10.10;7.73;;;;;;;15.37;100.00;101210.00;2072688;28;20611;-69
2023/05/18 00:16:42;;;;;;;11.33;7.77;;;;;;;15.36;100.00;101213.28;2072970;28;20215;-68
2023/05/18 00:17:42;;;;;;;11.73;8.20;;;;;;;15.33;100.00;101211.38;2071043;28;20171;-68
2023/05/18 00:18:43;;;;;;;10.97;7.80;;;;;;;15.28;100.00;101215.50;2067299;28;20232;-68
2023/05/18 00:19:45;;;;;;;10.73;7.60;;;;;;;15.25;100.00;101224.75;2072504;28;20223;-68
2023/05/18 00:20:45;;;;;;;11.37;8.30;;;;;;;15.29;100.00;101224.63;2067103;28;20464;-69
2023/05/18 00:21:47;;;;;;;12.50;8.20;;;;;;;15.31;100.00;101227.78;2072994;28;21214;-68
2023/05/18 00:22:49;;;;;;;12.50;7.90;;;;;;;15.33;100.00;101226.13;2072645;28;20204;-69
2023/05/18 00:23:50;;;;;;;9.03;7.53;;;;;;;15.27;100.00;101227.88;2072398;28;20848;-68
2023/05/18 00:24:51;;;;;;;8.43;7.50;;;;;;;15.29;100.00;101233.03;2079341;28;20459;-68
2023/05/18 00:25:52;;;;;;;10.83;7.33;;;;;;;15.29;100.00;101227.44;2082552;28;20945;-69
2023/05/18 00:26:52;;;;;;;11.83;7.70;;;;;;;15.27;100.00;101227.13;2079034;28;20215;-69
2023/05/18 00:27:52;;;;;;;14.23;7.53;;;;;;;15.32;100.00;101230.09;2073060;28;20172;-69
2023/05/18 00:28:53;;;;;;;12.70;8.13;;;;;;;15.29;100.00;101228.22;2072578;28;20273;-68
2023/05/18 00:29:53;;;;;;;9.60;7.27;;;;;;;15.25;100.00;101226.75;2071410;28;20190;-69
2023/05/18 00:30:54;;;;;;;8.90;8.07;;;;;;;15.21;100.00;101231.72;2071473;28;20311;-68
2023/05/18 00:31:55;;;;;;;8.27;7.47;;;;;;;14.78;100.00;101145.81;2072603;28;20197;-68
2023/05/18 00:32:55;;;;;;;9.93;8.00;;;;;;;15.17;100.00;101209.47;2072272;28;20485;-68
2023/05/18 00:33:56;;;;;;;9.77;7.43;;;;;;;15.29;100.00;101224.63;2072838;28;20188;-68
2023/05/18 00:34:56;;;;;;;9.83;7.43;;;;;;;15.28;100.00;101231.47;2078292;28;20196;-68
2023/05/18 00:35:58;;;;;;;10.83;7.20;;;;;;;15.15;100.00;101242.66;2073289;28;20338;-68
2023/05/18 00:36:58;;;;;;;10.93;7.90;;;;;;;15.18;100.00;101229.81;2064292;28;20173;-69
2023/05/18 00:37:58;;;;;;;10.57;8.47;;;;;;;15.18;100.00;101232.59;2071583;28;20605;-68
2023/05/18 00:38:59;;;;;;;8.07;7.23;;;;;;;15.23;100.00;101232.03;2072104;28;20193;-69
2023/05/18 00:40:00;;;;;;;11.00;7.70;;;;;;;15.19;100.00;101234.16;2071361;28;20247;-69
2023/05/18 00:41:00;;;;;;;10.60;7.23;;;;;;;15.16;100.00;101237.84;2072590;28;20250;-68
2023/05/18 00:42:01;;;;;;;9.90;7.17;;;;;;;15.18;100.00;101233.38;2072719;28;20631;-68
2023/05/18 00:43:01;;;;;;;8.67;7.80;;;;;;;15.22;100.00;101231.25;2072493;28;20170;-69
2023/05/18 00:44:03;;;;;;;10.10;7.23;;;;;;;15.20;100.00;101224.53;2072379;28;20243;-68
2023/05/18 00:45:04;;;;;;;9.77;7.60;;;;;;;15.20;100.00;101233.72;2072927;28;20196;-68
2023/05/18 00:46:05;;;;;;;11.63;7.50;;;;;;;15.20;100.00;101225.34;2072140;28;20474;-69
2023/05/18 00:47:07;;;;;;;10.00;7.30;;;;;;;15.23;100.00;101221.66;2069209;28;20525;-68
2023/05/18 00:48:07;;;;;;;11.20;8.03;;;;;;;15.23;100.00;101235.63;2067577;28;20668;-68
2023/05/18 00:49:08;;;;;;;10.20;8.50;;;;;;;15.22;100.00;101239.59;2068412;28;20804;-68
2023/05/18 00:50:09;;;;;;;14.57;8.70;;;;;;;15.25;100.00;101229.56;2068786;28;20609;-69
2023/05/18 00:51:10;;;;;;;12.37;9.30;;;;;;;15.22;100.00;101231.25;2067728;28;20183;-68
2023/05/18 00:52:11;;;;;;;11.17;8.40;;;;;;;15.24;100.00;101231.59;2071966;28;20471;-68
2023/05/18 00:53:11;;;;;;;12.00;9.47;;;;;;;15.27;100.00;101232.69;2064717;28;20592;-68
2023/05/18 00:54:12;;;;;;;10.63;8.53;;;;;;;15.24;100.00;101230.78;2072432;28;20235;-68
2023/05/18 00:55:13;;;;;;;11.63;8.43;;;;;;;15.08;100.00;101220.56;2072382;28;20568;-68
2023/05/18 00:56:14;;;;;;;11.83;8.77;;;;;;;14.54;100.00;101127.06;2072701;28;20463;-68
2023/05/18 00:57:15;;;;;;;11.10;8.50;;;;;;;15.23;100.00;101223.66;2072017;28;20193;-68
2023/05/18 00:58:16;;;;;;;9.43;8.40;;;;;;;15.22;100.00;101230.47;2073673;28;20462;-68
2023/05/18 00:59:17;;;;;;;13.37;9.00;;;;;;;14.90;100.00;101186.09;2074314;28;20428;-68
2023/05/18 01:00:19;;;;;;;11.60;8.27;;;;;;;15.26;100.00;101228.34;2070327;28;20186;-68
2023/05/18 01:01:27;;;;;;;11.13;8.60;;;;;;;15.29;100.00;101231.03;2068046;28;20455;-68
2023/05/18 01:02:29;;;;;;;11.53;8.90;;;;;;;15.25;100.00;101235.13;2072529;28;20446;-68
2023/05/18 01:03:29;;;;;;;9.07;7.53;;;;;;;15.25;100.00;101232.34;2072770;28;20432;-68
2023/05/18 01:04:30;;;;;;;14.07;8.03;;;;;;;15.27;100.00;101229.91;2072435;28;20540;-69
2023/05/18 01:05:31;;;;;;;12.43;6.87;;;;;;;15.25;100.00;101235.94;2072698;28;20287;-68
2023/05/18 01:06:34;;;;;;;11.03;7.87;;;;;;;15.20;100.00;101230.91;2072252;28;20960;-68
2023/05/18 01:07:36;;;;;;;12.03;8.23;;;;;;;15.19;100.00;101228.56;2071647;28;20196;-68
2023/05/18 01:08:37;;;;;;;11.67;8.10;;;;;;;15.18;100.00;101224.22;2072189;28;20506;-68
2023/05/18 01:09:38;;;;;;;9.63;8.10;;;;;;;15.19;100.00;101225.78;2071130;28;20422;-68
2023/05/18 01:10:40;;;;;;;11.43;8.17;;;;;;;15.13;100.00;101216.41;2074481;28;20461;-68
2023/05/18 01:12:11;;;;;;;12.20;8.40;;;;;;;15.20;100.00;101228.13;2072443;28;20181;-68
2023/05/18 01:13:20;;;;;;;8.40;7.30;;;;;;;15.14;100.00;101224.34;2071902;28;20447;-68
2023/05/18 01:14:41;;;;;;;16.60;8.07;;;;;;;15.13;100.00;101219.19;2072058;28;20845;-68
2023/05/18 01:15:47;;;;;;;8.90;7.23;;;;;;;15.10;100.00;101222.88;2072406;28;20952;-68
2023/05/18 01:17:15;;;;;;;11.13;7.47;;;;;;;15.13;100.00;101231.16;2071937;28;20503;-68
2023/05/18 01:18:32;;;;;;;12.83;8.07;;;;;;;15.06;100.00;101236.94;2072527;28;20470;-68
2023/05/18 01:19:59;;;;;;;9.40;7.40;;;;;;;15.09;100.00;101226.91;2070128;28;20413;-68
2023/05/18 01:21:41;;;;;;;9.93;7.17;;;;;;;15.13;100.00;101227.56;2064625;28;20824;-68
2023/05/18 01:22:56;;;;;;;8.27;7.00;;;;;;;15.15;100.00;101239.06;2076855;28;20485;-68
2023/05/18 01:24:07;;;;;;;11.47;7.27;;;;;;;15.07;100.00;101241.31;2073831;28;20442;-68
2023/05/18 01:25:32;;;;;;;10.70;7.27;;;;;;;15.09;100.00;101238.06;2072446;28;20435;-68
2023/05/18 01:26:36;;;;;;;9.50;7.67;;;;;;;15.08;100.00;101242.09;2072679;28;20788;-68
2023/05/18 01:27:41;;;;;;;9.57;6.90;;;;;;;15.09;100.00;101238.88;2064098;28;20515;-68
2023/05/18 01:28:45;;;;;;;11.23;7.10;;;;;;;15.07;100.00;101249.69;2071628;28;20494;-68
2023/05/18 01:29:48;;;;;;;9.63;7.13;;;;;;;14.99;100.00;101253.94;2070523;28;20539;-68
2023/05/18 01:30:49;;;;;;;12.17;7.03;;;;;;;15.08;100.00;101248.47;2074318;28;20938;-68
2023/05/18 01:31:50;;;;;;;9.87;7.17;;;;;;;15.14;100.00;101248.66;2075015;28;20869;-68
2023/05/18 01:32:50;;;;;;;8.03;6.77;;;;;;;15.12;100.00;101254.69;2072093;28;20865;-68
2023/05/18 01:33:51;;;;;;;8.13;6.63;;;;;;;15.10;100.00;101253.59;2072408;28;20185;-68
2023/05/18 01:34:51;;;;;;;10.43;7.30;;;;;;;15.09;100.00;101257.59;2077840;28;20226;-68
2023/05/18 01:35:52;;;;;;;10.93;7.00;;;;;;;15.09;100.00;101275.16;2072250;28;20212;-68
2023/05/18 01:36:52;;;;;;;8.97;6.77;;;;;;;15.13;100.00;101258.28;2072089;28;20177;-68
2023/05/18 01:37:53;;;;;;;8.17;6.83;;;;;;;15.11;100.00;101263.53;2072181;28;20235;-68
2023/05/18 01:38:55;;;;;;;10.27;6.33;;;;;;;15.14;100.00;101259.84;2071724;28;20254;-68
2023/05/18 01:39:55;;;;;;;10.07;7.23;;;;;;;15.09;100.00;101261.19;2068815;28;20290;-68
2023/05/18 01:41:01;;;;;;;8.70;7.17;;;;;;;15.13;100.00;101261.88;2071606;28;20502;-68
2023/05/18 01:42:12;;;;;;;7.70;6.90;;;;;;;15.15;100.00;101264.97;2071646;28;20207;-68
2023/05/18 01:43:17;;;;;;;12.67;7.60;;;;;;;15.18;100.00;101264.09;2071232;28;20485;-68
2023/05/18 01:44:23;;;;;;;7.80;6.50;;;;;;;15.21;100.00;101268.78;2072014;28;20448;-68
2023/05/18 01:45:28;;;;;;;8.90;6.07;;;;;;;14.67;100.00;101183.63;2070378;28;20551;-68
2023/05/18 01:46:59;;;;;;;9.53;7.23;;;;;;;15.15;100.00;101267.78;2071998;28;21014;-68
2023/05/18 01:48:01;;;;;;;8.40;7.20;;;;;;;15.14;100.00;101273.81;2072011;28;20472;-68
2023/05/18 01:49:25;;;;;;;10.27;7.60;;;;;;;15.10;100.00;101273.91;2071247;28;21018;-68
2023/05/18 01:50:36;;;;;;;10.97;6.93;;;;;;;15.10;100.00;101271.13;2065866;28;20495;-68
2023/05/18 01:51:43;;;;;;;12.03;7.00;;;;;;;15.07;100.00;101272.00;2072055;28;20483;-68
2023/05/18 01:52:50;;;;;;;9.47;6.03;;;;;;;15.07;100.00;101271.25;2071905;28;20505;-67
2023/05/18 01:54:01;;;;;;;11.27;6.80;;;;;;;14.98;100.00;101268.34;2071928;28;20557;-68
2023/05/18 01:55:04;;;;;;;10.67;8.13;;;;;;;14.98;100.00;101268.34;2068695;28;20482;-68
2023/05/18 01:56:07;;;;;;;10.90;7.50;;;;;;;15.02;100.00;101272.56;2071117;28;20447;-67
2023/05/18 01:57:08;;;;;;;10.70;7.90;;;;;;;14.99;100.00;101281.84;2071274;28;20510;-67
2023/05/18 01:58:11;;;;;;;11.20;7.83;;;;;;;14.44;100.00;101189.53;2071667;28;20463;-68
2023/05/18 01:59:13;;;;;;;10.57;7.70;;;;;;;15.05;100.00;101276.47;2077390;28;20454;-68
2023/05/18 02:00:15;;;;;;;11.47;8.37;;;;;;;14.95;100.00;101258.84;2071758;28;21027;-68
2023/05/18 02:01:18;;;;;;;15.10;9.23;;;;;;;15.07;100.00;101271.25;2071349;28;20455;-68
2023/05/18 02:02:19;;;;;;;8.70;7.70;;;;;;;15.09;100.00;101277.16;2071759;28;20430;-68
2023/05/18 02:03:19;;;;;;;8.73;7.30;;;;;;;15.12;100.00;101279.06;2072088;28;20530;-68
2023/05/18 02:04:20;;;;;;;9.10;7.47;;;;;;;15.14;100.00;101279.38;2071079;28;20616;-68
2023/05/18 02:05:20;;;;;;;9.67;7.70;;;;;;;15.13;100.00;101283.41;2071294;28;20205;-68
2023/05/18 02:06:21;;;;;;;8.53;7.73;;;;;;;15.08;100.00;101284.75;2071339;28;20585;-68
2023/05/18 02:07:21;;;;;;;10.13;7.67;;;;;;;15.09;100.00;101280.72;2071162;28;20276;-68
2023/05/18 02:08:22;;;;;;;11.43;7.00;;;;;;;14.72;100.00;101222.91;2071961;28;20253;-67
2023/05/18 02:09:22;;;;;;;10.07;6.83;;;;;;;15.14;100.00;101282.97;2070753;28;20184;-67
2023/05/18 02:10:23;;;;;;;9.57;6.97;;;;;;;15.21;100.00;101290.34;2073815;28;20209;-67
2023/05/18 02:11:23;;;;;;;11.00;7.17;;;;;;;15.22;100.00;101289.88;2072404;28;20189;-67
2023/05/18 02:12:24;;;;;;;8.87;6.60;;;;;;;15.20;100.00;101286.75;2072219;28;20207;-67
2023/05/18 02:13:25;;;;;;;8.23;6.63;;;;;;;15.20;100.00;101281.16;2071665;28;20185;-67
2023/05/18 02:14:25;;;;;;;9.90;6.73;;;;;;;15.06;100.00;101267.66;2071664;28;20658;-68
2023/05/18 02:15:26;;;;;;;9.07;6.70;;;;;;;15.23;100.00;101285.06;2071763;28;20224;-68
2023/05/18 02:16:26;;;;;;;8.90;6.53;;;;;;;15.21;100.00;101293.13;2072084;28;20174;-67
2023/05/18 02:17:27;;;;;;;7.90;7.10;;;;;;;15.16;100.00;101291.66;2071317;28;20717;-67
2023/05/18 02:18:28;;;;;;;13.97;7.43;;;;;;;15.20;100.00;101289.53;2072438;28;20671;-67
2023/05/18 02:19:31;;;;;;;12.13;7.10;;;;;;;15.22;100.00;101291.91;2070698;28;20796;-67
2023/05/18 02:20:32;;;;;;;10.03;7.00;;;;;;;15.21;100.00;101290.34;2071662;28;20278;-67
2023/05/18 02:21:34;;;;;;;9.83;6.80;;;;;;;14.82;100.00;101227.38;2071859;28;20923;-67
2023/05/18 02:22:35;;;;;;;9.37;6.80;;;;;;;15.23;100.00;101294.25;2074986;28;20688;-67
2023/05/18 02:23:35;;;;;;;15.07;7.63;;;;;;;15.24;100.00;101281.06;2076316;28;20827;-67
2023/05/18 02:24:36;;;;;;;11.87;7.47;;;;;;;15.22;100.00;101294.69;2069337;28;20654;-67
2023/05/18 02:25:37;;;;;;;10.07;6.80;;;;;;;15.20;100.00;101292.34;2065006;28;20481;-68
2023/05/18 02:26:38;;;;;;;8.30;7.30;;;;;;;15.20;100.00;101297.94;2071497;28;20180;-68
2023/05/18 02:27:39;;;;;;;9.07;6.83;;;;;;;15.24;100.00;101293.00;2063809;28;20847;-67
2023/05/18 02:28:39;;;;;;;8.47;7.37;;;;;;;15.24;100.00;101300.59;2071180;28;20459;-68
2023/05/18 02:29:40;;;;;;;9.40;7.10;;;;;;;14.86;100.00;101236.41;2067995;28;20220;-68
2023/05/18 02:30:40;;;;;;;8.37;6.70;;;;;;;15.27;100.00;101300.47;2066107;28;20246;-68
2023/05/18 02:31:41;;;;;;;8.07;7.17;;;;;;;15.26;100.00;101298.16;2067295;28;20220;-68
2023/05/18 02:32:41;;;;;;;9.10;6.70;;;;;;;15.29;100.00;101300.84;2069035;28;20188;-68
2023/05/18 02:33:42;;;;;;;12.67;7.47;;;;;;;15.29;100.00;101295.25;2066149;28;20609;-68
2023/05/18 02:34:42;;;;;;;9.20;6.47;;;;;;;14.71;100.00;101217.78;2071742;28;20196;-68
2023/05/18 02:35:42;;;;;;;7.47;6.70;;;;;;;15.21;100.00;101293.91;2064367;28;20277;-68
2023/05/18 02:36:44;;;;;;;8.03;6.70;;;;;;;15.06;100.00;101275.28;2071192;28;20197;-68
2023/05/18 02:37:46;;;;;;;8.00;6.60;;;;;;;15.21;100.00;101298.72;2071491;28;20204;-68
2023/05/18 02:38:47;;;;;;;10.43;7.27;;;;;;;15.18;100.00;101294.81;2071634;28;20443;-68
2023/05/18 02:39:48;;;;;;;9.67;6.67;;;;;;;14.43;100.00;101190.75;2070665;28;20432;-68
2023/05/18 02:42:07;;;;;;;11.30;7.37;;;;;;;15.21;100.00;101304.31;2071847;28;20949;-68
2023/05/18 02:43:08;;;;;;;11.23;7.30;;;;;;;15.17;100.00;101300.84;2071602;28;20859;-68
2023/05/18 02:44:08;;;;;;;9.40;7.63;;;;;;;14.97;100.00;101295.44;2071855;28;20183;-68
2023/05/18 02:45:09;;;;;;;9.03;7.63;;;;;;;15.12;100.00;101304.94;2071481;28;20181;-68
2023/05/18 02:46:09;;;;;;;8.77;7.57;;;;;;;15.08;100.00;101307.09;2072333;28;20666;-68
2023/05/18 02:47:10;;;;;;;10.73;7.73;;;;;;;15.07;100.00;101299.91;2068526;28;20662;-68
2023/05/18 02:48:10;;;;;;;10.53;7.50;;;;;;;15.08;100.00;101306.31;2072058;28;20727;-68
2023/05/18 02:49:11;;;;;;;10.33;7.47;;;;;;;15.06;100.00;101305.97;2070797;28;20581;-68
2023/05/18 02:50:11;;;;;;;9.17;7.17;;;;;;;15.06;100.00;101331.88;2070599;28;20586;-68
2023/05/18 02:51:12;;;;;;;8.40;7.40;;;;;;;14.29;100.00;101189.19;2068636;28;20584;-68
2023/05/18 02:52:13;;;;;;;11.40;7.70;;;;;;;15.10;100.00;101317.78;2069089;28;20191;-68
2023/05/18 02:53:13;;;;;;;10.80;6.83;;;;;;;15.08;100.00;101309.09;2071564;28;20194;-68
2023/05/18 02:54:13;;;;;;;8.50;7.20;;;;;;;15.05;100.00;101316.34;2071838;28;20197;-68
2023/05/18 02:55:15;;;;;;;8.00;7.20;;;;;;;14.50;100.00;101233.16;2070153;28;20272;-68
2023/05/18 02:56:17;;;;;;;8.90;7.30;;;;;;;15.02;100.00;101317.22;2071044;28;20240;-68
2023/05/18 02:57:17;;;;;;;11.57;7.57;;;;;;;15.00;100.00;101318.91;2071332;28;20452;-68
2023/05/18 02:58:19;;;;;;;8.07;7.20;;;;;;;15.00;100.00;101322.50;2072772;28;20452;-68
2023/05/18 02:59:19;;;;;;;8.73;7.33;;;;;;;15.02;100.00;101324.84;2074916;28;20247;-68
2023/05/18 03:00:22;;;;;;;8.77;7.67;;;;;;;14.98;100.00;101318.56;2071324;28;20436;-68
2023/05/18 03:01:26;;;;;;;10.87;7.63;;;;;;;14.96;100.00;101319.00;2072277;28;20178;-68
2023/05/18 03:02:26;;;;;;;10.30;7.80;;;;;;;14.94;100.00;101326.28;2071710;28;20431;-68
2023/05/18 03:03:27;;;;;;;9.27;7.77;;;;;;;14.94;100.00;101329.84;2071558;28;20426;-68
2023/05/18 03:04:27;;;;;;;9.47;7.80;;;;;;;13.65;100.00;101119.00;2072177;28;20185;-68
2023/05/18 03:05:27;;;;;;;8.80;7.87;;;;;;;14.89;100.00;101321.25;2072595;28;20271;-68
2023/05/18 03:06:29;;;;;;;9.07;8.17;;;;;;;14.75;100.00;101305.72;2070447;28;20192;-68
2023/05/18 03:07:31;;;;;;;8.63;7.73;;;;;;;14.88;100.00;101314.91;2070971;28;20201;-68
2023/05/18 03:08:32;;;;;;;9.63;8.47;;;;;;;14.88;100.00;101328.84;2071597;28;20455;-68
2023/05/18 03:09:33;;;;;;;9.23;7.57;;;;;;;14.81;100.00;101323.47;2070561;28;20923;-68
2023/05/18 03:10:33;;;;;;;8.33;7.53;;;;;;;14.82;100.00;101330.63;2074116;28;20550;-68
2023/05/18 03:11:33;;;;;;;11.57;8.40;;;;;;;14.78;100.00;101329.16;2073331;28;20596;-68
2023/05/18 03:12:34;;;;;;;8.87;7.93;;;;;;;14.68;100.00;101311.50;2073691;28;20217;-68
2023/05/18 03:13:34;;;;;;;11.17;8.87;;;;;;;14.78;100.00;101327.16;2080308;28;20200;-68
2023/05/18 03:14:35;;;;;;;8.80;7.97;;;;;;;14.75;100.00;101332.84;2073030;28;20291;-68
2023/05/18 03:15:36;;;;;;;10.30;8.60;;;;;;;14.69;100.00;101327.03;2073594;28;20243;-68
2023/05/18 03:16:37;;;;;;;10.50;8.50;;;;;;;14.74;100.00;101332.06;2073109;28;20212;-68
2023/05/18 03:17:38;;;;;;;9.63;8.20;;;;;;;14.70;100.00;101328.59;2072987;28;20439;-68
2023/05/18 03:18:38;;;;;;;11.83;8.80;;;;;;;14.72;100.00;101337.31;2073025;28;20417;-68
2023/05/18 03:19:39;;;;;;;10.83;8.50;;;;;;;14.69;100.00;101332.59;2071757;28;20173;-68
2023/05/18 03:20:39;;;;;;;8.67;7.60;;;;;;;14.69;100.00;101335.38;2073593;28;20204;-68
2023/05/18 03:21:40;;;;;;;10.90;8.33;;;;;;;14.72;100.00;101339.31;2073423;28;20187;-68
2023/05/18 03:22:40;;;;;;;8.23;7.43;;;;;;;14.64;100.00;101327.56;2074042;28;20567;-68
2023/05/18 03:23:41;;;;;;;10.20;8.40;;;;;;;14.68;100.00;101333.84;2075604;28;20192;-68
2023/05/18 03:24:42;;;;;;;10.53;8.37;;;;;;;14.56;100.00;101317.84;2073156;28;20292;-68
2023/05/18 03:25:43;;;;;;;9.17;8.00;;;;;;;14.66;100.00;101329.91;2069928;28;20200;-68
2023/05/18 03:26:44;;;;;;;11.57;8.07;;;;;;;14.63;100.00;101336.38;2067372;28;20659;-68
2023/05/18 03:27:44;;;;;;;9.93;8.40;;;;;;;14.65;100.00;101331.91;2072407;28;20680;-68
2023/05/18 03:28:45;;;;;;;9.50;8.00;;;;;;;14.61;100.00;101333.25;2073013;28;20611;-68
2023/05/18 03:29:45;;;;;;;10.97;8.40;;;;;;;14.14;100.00;101257.69;2072311;28;20211;-67
2023/05/18 03:30:46;;;;;;;9.60;8.50;;;;;;;14.60;100.00;101337.28;2073014;28;20677;-68
2023/05/18 03:31:46;;;;;;;11.43;7.73;;;;;;;14.62;100.00;101338.41;2073294;28;20433;-68
2023/05/18 03:32:47;;;;;;;9.07;8.17;;;;;;;14.60;100.00;101337.28;2077460;28;20348;-68
2023/05/18 03:33:47;;;;;;;9.73;8.73;;;;;;;14.53;100.00;101326.31;2076682;28;20631;-67
2023/05/18 03:34:48;;;;;;;9.43;8.27;;;;;;;14.61;100.00;101338.84;2074739;28;20250;-67
2023/05/18 03:35:48;;;;;;;11.67;8.90;;;;;;;14.59;100.00;101344.84;2071836;28;20209;-67
2023/05/18 03:36:51;;;;;;;9.90;8.87;;;;;;;14.57;100.00;101347.31;2064813;28;20186;-67
2023/05/18 03:37:51;;;;;;;9.90;8.90;;;;;;;13.93;100.00;101265.88;2081353;28;20264;-67
2023/05/18 03:38:52;;;;;;;10.37;9.07;;;;;;;14.48;100.00;101344.38;2071975;28;21174;-68
2023/05/18 03:39:52;;;;;;;10.63;9.37;;;;;;;14.46;100.00;101348.84;2072335;28;20618;-68
2023/05/18 03:40:54;;;;;;;12.10;9.47;;;;;;;13.46;100.00;101193.13;2072612;28;20274;-68
2023/05/18 03:41:54;;;;;;;12.97;9.93;;;;;;;14.41;100.00;101343.78;2072991;28;20192;-68
2023/05/18 03:42:56;;;;;;;12.23;9.90;;;;;;;14.38;100.00;101351.03;2072389;28;20527;-68
2023/05/18 03:43:57;;;;;;;11.33;9.43;;;;;;;13.76;100.00;101258.75;2073077;28;20641;-68
2023/05/18 03:44:57;;;;;;;12.17;9.47;;;;;;;14.26;100.00;101340.63;2072593;28;20724;-68
2023/05/18 03:45:58;;;;;;;10.40;9.40;;;;;;;14.34;100.00;101346.78;2073049;28;20180;-67
2023/05/18 03:46:58;;;;;;;11.50;10.37;;;;;;;14.32;100.00;101341.66;2078479;28;20456;-68
2023/05/18 03:47:58;;;;;;;12.57;9.60;;;;;;;14.31;100.00;101348.44;2073087;28;20204;-68
2023/05/18 03:48:59;;;;;;;10.43;9.33;;;;;;;14.29;100.00;101353.66;2072577;28;20204;-67
2023/05/18 03:49:59;;;;;;;11.77;9.63;;;;;;;14.21;100.00;101330.00;2077564;28;20758;-67
2023/05/18 03:51:00;;;;;;;11.73;10.40;;;;;;;13.59;100.00;101235.75;2075861;28;20198;-67
2023/05/18 03:52:02;;;;;;;12.53;9.80;;;;;;;13.74;100.00;101269.56;2073014;28;20182;-67
2023/05/18 03:53:03;;;;;;;11.73;10.40;;;;;;;14.26;100.00;101351.78;2072263;28;20182;-67
2023/05/18 03:54:03;;;;;;;12.80;10.40;;;;;;;14.26;100.00;101349.00;2072818;28;20966;-68
2023/05/18 03:55:04;;;;;;;10.50;9.40;;;;;;;14.25;100.00;101369.69;2073343;28;20720;-67
2023/05/18 03:56:05;;;;;;;11.17;9.67;;;;;;;14.26;100.00;101356.56;2072499;28;20207;-66
2023/05/18 03:57:05;;;;;;;11.47;9.83;;;;;;;14.24;100.00;101354.22;2072353;28;20464;-67
2023/05/18 03:58:06;;;;;;;12.37;9.93;;;;;;;14.28;100.00;101362.47;2073093;28;20204;-67
2023/05/18 03:59:06;;;;;;;11.23;9.90;;;;;;;14.29;100.00;101367.59;2074976;28;20230;-66
2023/05/18 04:00:11;;;;;;;11.10;9.63;;;;;;;14.03;100.00;101321.31;2072362;28;20290;-69
2023/05/18 04:01:11;;;;;;;10.37;9.23;;;;;;;14.35;100.00;101362.28;2072753;28;20186;-66
2023/05/18 04:02:12;;;;;;;15.13;9.63;;;;;;;14.30;100.00;101355.22;2072997;28;20451;-66
2023/05/18 04:03:13;;;;;;;10.10;8.43;;;;;;;14.34;100.00;101360.72;2072408;28;20273;-66
2023/05/18 04:04:16;;;;;;;10.83;8.73;;;;;;;13.94;100.00;101300.88;2073374;28;20184;-66
2023/05/18 04:05:18;;;;;;;14.60;9.20;;;;;;;14.36;100.00;101377.78;2072751;28;20870;-68
2023/05/18 04:06:21;;;;;;;10.87;8.47;;;;;;;14.29;100.00;101364.81;2072969;28;20445;-67
2023/05/18 04:07:23;;;;;;;12.13;8.47;;;;;;;14.41;100.00;101369.69;2072041;28;20486;-67
2023/05/18 04:08:24;;;;;;;9.77;8.27;;;;;;;14.44;100.00;101371.56;2072355;28;20505;-68
2023/05/18 04:09:24;;;;;;;9.60;7.80;;;;;;;14.47;100.00;101376.28;2071853;28;20449;-68
2023/05/18 04:10:25;;;;;;;8.23;7.43;;;;;;;14.46;100.00;101374.72;2072201;28;20458;-68
2023/05/18 04:11:25;;;;;;;8.57;7.83;;;;;;;14.48;100.00;101375.06;2072549;28;20195;-67
2023/05/18 04:12:26;;;;;;;10.93;7.90;;;;;;;14.48;100.00;101365.91;2072932;28;20243;-69
2023/05/18 04:13:26;;;;;;;8.40;7.60;;;;;;;14.51;100.00;101376.19;2072732;28;20187;-68
2023/05/18 04:14:27;;;;;;;8.70;7.80;;;;;;;14.52;100.00;101372.97;2072899;28;20283;-69
2023/05/18 04:15:27;;;;;;;8.60;7.80;;;;;;;14.53;100.00;101373.72;2072691;28;20233;-65
2023/05/18 04:16:28;;;;;;;9.70;8.50;;;;;;;13.84;100.00;101277.63;2067844;28;20189;-65
2023/05/18 04:17:28;;;;;;;9.63;8.23;;;;;;;14.56;100.00;101389.59;2068407;28;20625;-67
2023/05/18 04:18:29;;;;;;;9.43;8.07;;;;;;;14.30;100.00;101357.25;2070144;28;20186;-68
2023/05/18 04:19:33;;;;;;;11.43;8.20;;;;;;;14.51;100.00;101384.53;2065051;28;20196;-67
2023/05/18 04:20:33;;;;;;;9.33;8.20;;;;;;;14.53;100.00;101382.09;2071979;28;20187;-67
2023/05/18 04:21:34;;;;;;;10.23;8.57;;;;;;;14.50;100.00;101383.75;2073151;28;20433;-70
2023/05/18 04:22:42;;;;;;;10.90;8.20;;;;;;;14.25;100.00;101341.81;2071457;28;20179;-69
2023/05/18 04:23:42;;;;;;;12.07;9.00;;;;;;;14.54;100.00;101386.44;2072911;28;20523;-69
2023/05/18 04:24:46;;;;;;;10.17;8.17;;;;;;;14.00;100.00;101302.69;2072581;28;20513;-67
2023/05/18 04:25:48;;;;;;;10.70;8.40;;;;;;;14.54;100.00;101390.03;2072803;28;20231;-67
2023/05/18 04:26:48;;;;;;;12.77;8.20;;;;;;;14.55;100.00;101386.00;2071855;28;20481;-64
2023/05/18 04:27:49;;;;;;;8.97;8.10;;;;;;;14.62;100.00;101396.19;2072169;28;20461;-65
2023/05/18 04:28:50;;;;;;;11.77;8.63;;;;;;;14.63;100.00;101401.31;2069512;28;20713;-63
2023/05/18 04:29:51;;;;;;;11.20;8.73;;;;;;;14.63;100.00;101400.53;2065364;28;20614;-65
2023/05/18 04:30:52;;;;;;;8.80;7.87;;;;;;;14.04;100.00;101302.59;2072242;28;20432;-67
2023/05/18 04:31:58;;;;;;;9.43;8.63;;;;;;;14.75;100.00;101400.56;2080604;28;20676;-66
2023/05/18 04:32:59;;;;;;;9.80;8.80;;;;;;;14.78;100.00;101399.69;2074207;28;20183;-66
2023/05/18 04:33:59;;;;;;;9.23;8.33;;;;;;;14.58;100.00;101373.19;2071465;28;20463;-68
2023/05/18 04:35:00;;;;;;;10.40;8.27;;;;;;;14.84;100.00;101409.09;2071519;28;20578;-66
2023/05/18 04:36:03;;;;;;;10.67;8.73;;;;;;;14.86;100.00;101398.25;2074590;28;20283;-65
2023/05/18 04:37:04;;;;;;;11.80;8.10;;;;;;;14.89;100.00;101391.81;2071802;28;20195;-66
2023/05/18 04:38:05;;;;;;;11.83;8.17;;;;;;;14.91;100.00;101392.13;2068632;28;20498;-65
2023/05/18 04:39:06;;;;;;;9.80;7.57;;;;;;;14.96;100.00;101399.94;2066054;28;20193;-65
2023/05/18 04:40:15;;;;;;;9.27;8.37;;;;;;;14.92;100.00;101390.13;2071434;28;20187;-66
2023/05/18 04:41:19;;;;;;;10.10;7.60;;;;;;;15.01;100.00;101401.44;2065486;28;20442;-65
2023/05/18 04:42:19;;;;;;;9.07;7.43;;;;;;;15.01;100.00;101395.84;2072196;28;20444;-65
2023/05/18 04:43:20;;;;;;;8.90;7.10;;;;;;;15.03;100.00;101398.97;2077234;28;20471;-67
2023/05/18 04:44:20;;;;;;;12.20;8.87;;;;;;;15.05;100.00;101394.50;2067332;28;20195;-65
2023/05/18 04:45:21;;;;;;;8.50;7.33;;;;;;;15.06;100.00;101396.06;2064825;28;20292;-64